createdAt,value
2022-09-21T00:03:56.386Z,99539.78
2022-09-21T00:09:04.011Z,99535.56
2022-09-21T00:14:11.714Z,99532.63
2022-09-21T00:19:20.243Z,99535.84
2022-09-21T00:24:25.141Z,99536.97
2022-09-21T00:29:30.158Z,99532.91
2022-09-21T00:34:37.694Z,99536.81
2022-09-21T00:39:43.857Z,99535.16
2022-09-21T00:44:48.846Z,99533.84
2022-09-21T00:49:58.820Z,99539.56
2022-09-21T00:55:12.703Z,99540.50
2022-09-21T01:00:17.880Z,99549.44
2022-09-21T01:05:26.465Z,99535.06
2022-09-21T01:10:35.384Z,99540.66
2022-09-21T01:15:48.719Z,99541.47
2022-09-21T01:21:18.944Z,99548.13
2022-09-21T01:26:32.016Z,99549.25
2022-09-21T01:31:44.975Z,99550.72
2022-09-21T01:36:51.979Z,99547.94
2022-09-21T01:41:59.200Z,99559.56
2022-09-21T01:47:10.215Z,99566.63
2022-09-21T01:52:20.208Z,99558.13
2022-09-21T01:57:37.451Z,99569.31
2022-09-21T02:02:51.550Z,99567.53
2022-09-21T02:07:57.792Z,99562.00
2022-09-21T02:13:07.441Z,99568.69
2022-09-21T02:18:24.479Z,99572.97
2022-09-21T02:23:35.845Z,99578.50
2022-09-21T02:28:47.380Z,99576.44
2022-09-21T02:34:02.173Z,99583.94
2022-09-21T02:39:13.004Z,99581.00
2022-09-21T02:44:23.977Z,99575.91
2022-09-21T02:49:37.611Z,99575.31
2022-09-21T02:54:47.066Z,99577.75
2022-09-21T02:59:52.354Z,99580.09
2022-09-21T03:04:59.815Z,99589.94
2022-09-21T03:10:05.099Z,99594.19
2022-09-21T03:15:12.493Z,99599.50
2022-09-21T03:20:20.928Z,99602.19
2022-09-21T03:25:26.270Z,99600.31
2022-09-21T03:30:32.412Z,99599.91
2022-09-21T03:35:42.325Z,99603.63
2022-09-21T03:40:49.121Z,99608.00
2022-09-21T03:45:54.025Z,99609.00
2022-09-21T03:51:02.064Z,99604.81
2022-09-21T03:56:07.453Z,99614.06
2022-09-21T04:01:12.431Z,99604.84
2022-09-21T04:06:20.286Z,99614.09
2022-09-21T04:11:25.574Z,99607.19
2022-09-21T04:16:30.739Z,99615.72
2022-09-21T04:21:38.455Z,99618.59
2022-09-21T04:26:43.813Z,99616.47
2022-09-21T04:31:50.831Z,99630.28
2022-09-21T04:36:58.801Z,99626.31
2022-09-21T04:42:03.713Z,99625.53
2022-09-21T04:47:09.784Z,99626.81
2022-09-21T04:52:19.242Z,99626.63
2022-09-21T04:57:26.720Z,99627.91
2022-09-21T05:02:31.617Z,99634.13
2022-09-21T05:07:39.243Z,99647.94
2022-09-21T05:12:44.732Z,99649.25
2022-09-21T05:17:53.662Z,99652.16
2022-09-21T05:23:05.015Z,99654.78
2022-09-21T05:28:13.119Z,99670.69
2022-09-21T05:33:25.421Z,99669.13
2022-09-21T05:38:43.095Z,99678.47
2022-09-21T05:43:50.332Z,99672.81
2022-09-21T05:49:03.070Z,99687.19
2022-09-21T05:54:17.180Z,99688.53
2022-09-21T05:59:45.748Z,99697.31
2022-09-21T06:04:52.059Z,99703.66
2022-09-21T06:10:00.809Z,99694.06
2022-09-21T06:15:06.379Z,99703.56
2022-09-21T06:20:12.697Z,99702.78
2022-09-21T06:25:20.476Z,99705.84
2022-09-21T06:30:25.822Z,99706.97
2022-09-21T06:35:34.129Z,99707.63
2022-09-21T06:40:41.613Z,99703.25
2022-09-21T06:45:47.079Z,99706.38
2022-09-21T06:51:00.273Z,99704.56
2022-09-21T06:56:11.077Z,99708.31
2022-09-21T07:01:19.743Z,99709.47
2022-09-21T07:06:37.281Z,99712.44
2022-09-21T07:11:45.196Z,99720.69
2022-09-21T07:16:50.628Z,99735.91
2022-09-21T07:21:57.767Z,99728.03
2022-09-21T07:27:10.998Z,99724.81
2022-09-21T07:32:16.768Z,99722.66
2022-09-21T07:37:23.969Z,99723.81
2022-09-21T07:42:38.781Z,99739.53
2022-09-21T07:47:58.259Z,99733.75
2022-09-21T07:53:26.848Z,99745.16
2022-09-21T08:04:24.275Z,99744.31
2022-09-21T08:09:34.928Z,99747.72
2022-09-21T08:14:44.588Z,99730.75
2022-09-21T08:19:51.424Z,99732.22
2022-09-21T08:24:57.237Z,99736.53
2022-09-21T08:30:07.563Z,99747.44
2022-09-21T08:35:13.062Z,99753.97
2022-09-21T08:40:18.774Z,99747.25
2022-09-21T08:45:34.106Z,99731.59
2022-09-21T08:51:03.662Z,99743.59
2022-09-21T08:56:53.737Z,99754.28
2022-09-21T09:02:33.812Z,99756.28
2022-09-21T09:08:12.287Z,99752.19
2022-09-21T09:13:50.282Z,99746.63
2022-09-21T09:19:03.634Z,99747.06
2022-09-21T09:24:14.757Z,99736.44
2022-09-21T09:29:27.927Z,99740.56
2022-09-21T09:34:48.974Z,99741.81
2022-09-21T09:40:08.983Z,99742.06
2022-09-21T09:45:38.395Z,99730.84
2022-09-21T09:51:03.284Z,99744.13
2022-09-21T10:02:16.860Z,99741.28
2022-09-21T10:07:41.188Z,99729.31
2022-09-21T10:12:49.905Z,99745.00
2022-09-21T10:18:06.250Z,99730.25
2022-09-21T10:23:16.445Z,99716.50
2022-09-21T10:28:26.718Z,99713.00
2022-09-21T10:33:32.612Z,99723.41
2022-09-21T10:38:38.116Z,99726.97
2022-09-21T10:43:48.203Z,99724.88
2022-09-21T10:48:55.798Z,99733.31
2022-09-21T10:54:24.413Z,99717.44
2022-09-21T10:59:39.414Z,99701.50
2022-09-21T11:04:52.416Z,99720.00
2022-09-21T11:10:07.711Z,99717.41
2022-09-21T11:15:29.034Z,99715.91
2022-09-21T11:20:44.377Z,99698.63
2022-09-21T11:25:56.192Z,99709.09
2022-09-21T11:31:24.133Z,99704.94
2022-09-21T11:36:41.388Z,99709.25
2022-09-21T11:42:01.888Z,99703.06
2022-09-21T11:47:20.259Z,99694.78
2022-09-21T11:52:39.259Z,99679.38
2022-09-21T11:57:55.063Z,99679.81
2022-09-21T12:03:36.877Z,99677.31
2022-09-21T12:09:23.983Z,99685.53
2022-09-21T12:20:57.990Z,99678.28
2022-09-21T12:26:21.254Z,99670.81
2022-09-21T12:31:38.065Z,99655.56
2022-09-21T12:37:02.272Z,99672.91
2022-09-21T12:42:28.425Z,99667.63
2022-09-21T12:47:47.491Z,99660.91
2022-09-21T12:52:58.917Z,99661.53
2022-09-21T12:58:15.480Z,99655.31
2022-09-21T13:03:28.817Z,99660.47
2022-09-21T13:08:41.221Z,99649.94
2022-09-21T13:13:53.066Z,99655.63
2022-09-21T13:19:00.701Z,99653.97
2022-09-21T13:24:35.847Z,99657.22
2022-09-21T13:29:43.386Z,99654.34
2022-09-21T13:34:52.145Z,99648.91
2022-09-21T13:40:42.940Z,99646.03
2022-09-21T13:46:00.521Z,99650.47
2022-09-21T13:51:14.699Z,99639.25
2022-09-21T13:56:22.931Z,99638.88
2022-09-21T14:01:52.753Z,99647.34
2022-09-21T14:07:00.657Z,99634.59
2022-09-21T14:12:09.800Z,99655.13
2022-09-21T14:17:40.101Z,99653.50
2022-09-21T14:22:49.250Z,99642.69
2022-09-21T14:27:54.949Z,99635.28
2022-09-21T14:33:15.552Z,99640.28
2022-09-21T14:38:24.972Z,99628.66
2022-09-21T14:43:34.001Z,99640.31
2022-09-21T14:48:53.046Z,99633.06
2022-09-21T14:54:26.503Z,99630.66
2022-09-21T14:59:48.191Z,99629.25
2022-09-21T15:05:17.600Z,99631.69
2022-09-21T15:10:41.102Z,99631.44
2022-09-21T15:16:00.217Z,99624.63
2022-09-21T15:21:08.505Z,99623.88
2022-09-21T15:26:21.462Z,99621.22
2022-09-21T15:31:27.010Z,99623.09
2022-09-21T15:36:38.739Z,99625.13
2022-09-21T15:41:50.566Z,99617.31
2022-09-21T15:47:01.134Z,99614.47
2022-09-21T15:52:19.425Z,99622.53
2022-09-21T15:57:37.381Z,99622.66
2022-09-21T16:02:44.590Z,99622.31
2022-09-21T16:07:52.329Z,99619.97
2022-09-21T16:13:26.990Z,99625.13
2022-09-21T16:18:35.943Z,99628.16
2022-09-21T16:23:45.323Z,99629.75
2022-09-21T16:28:58.536Z,99633.81
2022-09-21T16:34:22.647Z,99633.66
2022-09-21T16:39:30.465Z,99631.09
2022-09-21T16:44:41.114Z,99628.94
2022-09-21T16:49:46.810Z,99630.63
2022-09-21T16:54:54.949Z,99630.34
2022-09-21T17:00:01.542Z,99624.34
2022-09-21T17:05:11.145Z,99629.38
2022-09-21T17:10:19.827Z,99632.25
2022-09-21T17:15:25.663Z,99629.97
2022-09-21T17:20:35.978Z,99636.50
2022-09-21T17:25:45.014Z,99624.81
2022-09-21T17:30:50.272Z,99636.75
2022-09-21T17:35:56.723Z,99631.03
2022-09-21T17:41:06.497Z,99637.53
2022-09-21T17:46:21.777Z,99643.25
2022-09-21T17:51:41.964Z,99641.63
2022-09-21T17:56:57.260Z,99650.38
2022-09-21T18:02:07.625Z,99661.34
2022-09-21T18:07:16.096Z,99656.19
2022-09-21T18:12:48.604Z,99655.25
2022-09-21T18:18:06.002Z,99661.44
2022-09-21T18:23:21.572Z,99671.22
2022-09-21T18:28:44.157Z,99677.19
2022-09-21T18:33:57.030Z,99675.59
2022-09-21T18:39:25.372Z,99680.97
2022-09-21T18:44:40.319Z,99677.44
2022-09-21T18:50:00.384Z,99678.41
2022-09-21T18:55:15.515Z,99686.47
2022-09-21T19:00:30.010Z,99689.28
2022-09-21T19:05:35.970Z,99685.09
2022-09-21T19:10:47.553Z,99682.84
2022-09-21T19:16:04.644Z,99674.97
2022-09-21T19:21:22.046Z,99671.88
2022-09-21T19:26:34.117Z,99676.78
2022-09-21T19:31:41.975Z,99677.59
2022-09-21T19:36:48.989Z,99674.69
2022-09-21T19:42:05.256Z,99676.38
2022-09-21T19:47:22.974Z,99669.06
2022-09-21T19:52:33.035Z,99681.13
2022-09-21T19:57:51.595Z,99675.59
2022-09-21T20:03:09.182Z,99674.84
2022-09-21T20:08:20.481Z,99671.16
2022-09-21T20:13:36.142Z,99673.72
2022-09-21T20:18:50.835Z,99680.06
2022-09-21T20:24:02.172Z,99677.22
2022-09-21T20:29:07.867Z,99673.69
2022-09-21T20:34:15.660Z,99669.72
2022-09-21T20:39:22.143Z,99663.91
2022-09-21T20:44:27.067Z,99668.81
2022-09-21T20:49:35.220Z,99667.31
2022-09-21T20:54:40.110Z,99665.25
2022-09-21T20:59:45.296Z,99661.78
2022-09-21T21:04:52.804Z,99662.84
2022-09-21T21:09:59.086Z,99667.50
2022-09-21T21:15:04.030Z,99666.19
2022-09-21T21:20:13.104Z,99665.41
2022-09-21T21:25:18.518Z,99668.06
2022-09-21T21:30:25.272Z,99665.88
2022-09-21T21:35:33.042Z,99661.16
2022-09-21T21:40:39.044Z,99653.75
2022-09-21T21:45:44.061Z,99650.88
2022-09-21T21:51:01.020Z,99647.47
2022-09-21T21:56:08.305Z,99646.91
2022-09-21T22:01:15.304Z,99646.06
2022-09-21T22:06:23.746Z,99640.25
2022-09-21T22:11:31.191Z,99633.09
2022-09-21T22:16:38.002Z,99624.38
2022-09-21T22:21:53.220Z,99633.84
2022-09-21T22:26:59.142Z,99632.53
2022-09-21T22:32:04.792Z,99640.25
2022-09-21T22:37:12.294Z,99640.78
2022-09-21T22:42:17.345Z,99636.78
2022-09-21T22:47:22.254Z,99635.72
2022-09-21T22:52:30.042Z,99637.59
2022-09-21T22:57:35.104Z,99627.78
2022-09-21T23:02:40.067Z,99636.78
2022-09-21T23:07:47.544Z,99630.13
2022-09-21T23:12:53.628Z,99634.06
2022-09-21T23:17:58.589Z,99635.41
2022-09-21T23:23:06.721Z,99621.03
2022-09-21T23:28:11.655Z,99622.19
2022-09-21T23:33:17.376Z,99629.84
2022-09-21T23:38:24.944Z,99634.66
2022-09-21T23:43:29.966Z,99631.47
2022-09-21T23:48:35.316Z,99624.13
2022-09-21T23:53:43.193Z,99609.44
2022-09-21T23:58:49.495Z,99612.66
